sensor_id;sensor_type;location;lat;lon;timestamp;P1;durP1;ratioP1;P2;durP2;ratioP2
62616;SDS011;62539;51.190;6.808;2023-04-03T00:00:29;4.85;;;1.00;;
62616;SDS011;62539;51.190;6.808;2023-04-03T00:02:55;3.35;;;1.20;;
62616;SDS011;62539;51.190;6.808;2023-04-03T00:05:20;1.88;;;1.17;;
62616;SDS011;62539;51.190;6.808;2023-04-03T00:07:46;2.00;;;1.10;;
62616;SDS011;62539;51.190;6.808;2023-04-03T00:10:11;4.18;;;1.20;;
62616;SDS011;62539;51.190;6.808;2023-04-03T00:12:38;1.48;;;0.95;;
62616;SDS011;62539;51.190;6.808;2023-04-03T00:15:04;2.58;;;1.30;;
62616;SDS011;62539;51.190;6.808;2023-04-03T00:17:30;1.60;;;1.05;;
62616;SDS011;62539;51.190;6.808;2023-04-03T00:19:55;2.10;;;1.30;;
62616;SDS011;62539;51.190;6.808;2023-04-03T00:22:21;1.88;;;1.02;;
62616;SDS011;62539;51.190;6.808;2023-04-03T00:24:46;3.00;;;1.08;;
62616;SDS011;62539;51.190;6.808;2023-04-03T00:27:11;1.73;;;1.20;;
62616;SDS011;62539;51.190;6.808;2023-04-03T00:29:37;2.08;;;1.20;;
62616;SDS011;62539;51.190;6.808;2023-04-03T00:32:02;2.15;;;1.30;;
62616;SDS011;62539;51.190;6.808;2023-04-03T00:34:28;1.20;;;1.10;;
62616;SDS011;62539;51.190;6.808;2023-04-03T00:36:53;2.70;;;1.40;;
62616;SDS011;62539;51.190;6.808;2023-04-03T00:39:19;1.67;;;0.95;;
62616;SDS011;62539;51.190;6.808;2023-04-03T00:41:45;1.42;;;1.08;;
62616;SDS011;62539;51.190;6.808;2023-04-03T00:44:18;1.88;;;1.20;;
62616;SDS011;62539;51.190;6.808;2023-04-03T00:47:04;1.20;;;1.02;;
62616;SDS011;62539;51.190;6.808;2023-04-03T00:49:33;1.55;;;1.20;;
62616;SDS011;62539;51.190;6.808;2023-04-03T00:52:01;1.77;;;1.30;;
62616;SDS011;62539;51.190;6.808;2023-04-03T00:54:27;2.53;;;1.20;;
62616;SDS011;62539;51.190;6.808;2023-04-03T00:56:53;1.45;;;1.00;;
62616;SDS011;62539;51.190;6.808;2023-04-03T00:59:30;1.75;;;1.10;;
62616;SDS011;62539;51.190;6.808;2023-04-03T01:02:01;2.65;;;1.05;;
62616;SDS011;62539;51.190;6.808;2023-04-03T01:04:33;1.27;;;1.17;;
62616;SDS011;62539;51.190;6.808;2023-04-03T01:07:02;4.20;;;1.27;;
62616;SDS011;62539;51.190;6.808;2023-04-03T01:09:33;1.70;;;1.20;;
62616;SDS011;62539;51.190;6.808;2023-04-03T01:14:45;1.17;;;1.00;;
62616;SDS011;62539;51.190;6.808;2023-04-03T01:17:36;2.47;;;1.17;;
62616;SDS011;62539;51.190;6.808;2023-04-03T01:25:35;2.35;;;1.10;;
62616;SDS011;62539;51.190;6.808;2023-04-03T01:28:20;1.83;;;1.20;;
62616;SDS011;62539;51.190;6.808;2023-04-03T01:33:47;2.03;;;1.30;;
62616;SDS011;62539;51.190;6.808;2023-04-03T01:36:15;1.23;;;1.00;;
62616;SDS011;62539;51.190;6.808;2023-04-03T01:38:45;1.02;;;0.90;;
62616;SDS011;62539;51.190;6.808;2023-04-03T01:41:11;2.42;;;1.00;;
62616;SDS011;62539;51.190;6.808;2023-04-03T01:43:36;1.52;;;0.98;;
62616;SDS011;62539;51.190;6.808;2023-04-03T01:46:02;1.55;;;1.10;;
62616;SDS011;62539;51.190;6.808;2023-04-03T01:48:27;1.75;;;1.10;;
62616;SDS011;62539;51.190;6.808;2023-04-03T01:50:53;1.80;;;0.95;;
62616;SDS011;62539;51.190;6.808;2023-04-03T01:53:19;4.00;;;1.50;;
62616;SDS011;62539;51.190;6.808;2023-04-03T01:55:44;2.35;;;1.20;;
62616;SDS011;62539;51.190;6.808;2023-04-03T01:58:10;1.88;;;1.35;;
62616;SDS011;62539;51.190;6.808;2023-04-03T02:00:36;1.52;;;1.08;;
62616;SDS011;62539;51.190;6.808;2023-04-03T02:03:01;1.30;;;1.00;;
62616;SDS011;62539;51.190;6.808;2023-04-03T02:05:27;1.95;;;1.20;;
62616;SDS011;62539;51.190;6.808;2023-04-03T02:07:53;1.20;;;1.10;;
62616;SDS011;62539;51.190;6.808;2023-04-03T02:10:18;1.20;;;1.00;;
62616;SDS011;62539;51.190;6.808;2023-04-03T02:12:43;1.35;;;1.02;;
62616;SDS011;62539;51.190;6.808;2023-04-03T02:15:10;1.75;;;1.30;;
62616;SDS011;62539;51.190;6.808;2023-04-03T02:17:35;2.17;;;1.10;;
62616;SDS011;62539;51.190;6.808;2023-04-03T02:20:01;1.60;;;1.20;;
62616;SDS011;62539;51.190;6.808;2023-04-03T02:22:28;1.10;;;0.90;;
62616;SDS011;62539;51.190;6.808;2023-04-03T02:24:53;1.23;;;1.08;;
62616;SDS011;62539;51.190;6.808;2023-04-03T02:27:19;1.10;;;1.00;;
62616;SDS011;62539;51.190;6.808;2023-04-03T02:29:44;2.33;;;1.25;;
62616;SDS011;62539;51.190;6.808;2023-04-03T02:32:10;0.90;;;0.90;;
62616;SDS011;62539;51.190;6.808;2023-04-03T02:34:35;4.15;;;1.35;;
62616;SDS011;62539;51.190;6.808;2023-04-03T02:37:01;2.17;;;1.20;;
62616;SDS011;62539;51.190;6.808;2023-04-03T02:39:26;1.98;;;1.30;;
62616;SDS011;62539;51.190;6.808;2023-04-03T02:41:52;4.47;;;1.25;;
62616;SDS011;62539;51.190;6.808;2023-04-03T02:44:17;2.53;;;1.13;;
62616;SDS011;62539;51.190;6.808;2023-04-03T02:46:43;2.35;;;1.20;;
62616;SDS011;62539;51.190;6.808;2023-04-03T02:49:09;1.10;;;1.02;;
62616;SDS011;62539;51.190;6.808;2023-04-03T02:51:35;1.48;;;1.20;;
62616;SDS011;62539;51.190;6.808;2023-04-03T02:54:00;1.48;;;1.20;;
62616;SDS011;62539;51.190;6.808;2023-04-03T02:56:25;0.95;;;0.95;;
62616;SDS011;62539;51.190;6.808;2023-04-03T02:58:52;2.95;;;1.20;;
62616;SDS011;62539;51.190;6.808;2023-04-03T03:01:17;1.40;;;1.00;;
62616;SDS011;62539;51.190;6.808;2023-04-03T03:03:43;1.73;;;1.30;;
62616;SDS011;62539;51.190;6.808;2023-04-03T03:06:09;3.45;;;1.00;;
62616;SDS011;62539;51.190;6.808;2023-04-03T03:08:37;1.75;;;0.95;;
62616;SDS011;62539;51.190;6.808;2023-04-03T03:11:04;1.13;;;1.02;;
62616;SDS011;62539;51.190;6.808;2023-04-03T03:13:30;2.83;;;1.20;;
62616;SDS011;62539;51.190;6.808;2023-04-03T03:15:56;1.17;;;1.08;;
62616;SDS011;62539;51.190;6.808;2023-04-03T03:18:22;1.30;;;1.08;;
62616;SDS011;62539;51.190;6.808;2023-04-03T03:20:55;1.33;;;1.10;;
62616;SDS011;62539;51.190;6.808;2023-04-03T03:23:23;1.20;;;1.10;;
62616;SDS011;62539;51.190;6.808;2023-04-03T03:25:55;2.47;;;1.25;;
62616;SDS011;62539;51.190;6.808;2023-04-03T03:28:28;1.95;;;1.15;;
62616;SDS011;62539;51.190;6.808;2023-04-03T03:30:54;1.60;;;1.30;;
62616;SDS011;62539;51.190;6.808;2023-04-03T03:33:19;1.65;;;1.00;;
62616;SDS011;62539;51.190;6.808;2023-04-03T03:35:45;1.45;;;1.20;;
62616;SDS011;62539;51.190;6.808;2023-04-03T03:38:11;2.20;;;1.25;;
62616;SDS011;62539;51.190;6.808;2023-04-03T03:40:36;1.17;;;0.90;;
62616;SDS011;62539;51.190;6.808;2023-04-03T03:43:02;1.70;;;1.20;;
62616;SDS011;62539;51.190;6.808;2023-04-03T03:45:27;2.47;;;1.10;;
62616;SDS011;62539;51.190;6.808;2023-04-03T03:47:53;1.23;;;0.90;;
62616;SDS011;62539;51.190;6.808;2023-04-03T03:50:18;1.17;;;1.08;;
62616;SDS011;62539;51.190;6.808;2023-04-03T03:52:44;1.25;;;1.10;;
62616;SDS011;62539;51.190;6.808;2023-04-03T03:55:09;1.73;;;1.00;;
62616;SDS011;62539;51.190;6.808;2023-04-03T03:57:35;1.00;;;0.90;;
62616;SDS011;62539;51.190;6.808;2023-04-03T04:00:01;4.18;;;1.38;;
62616;SDS011;62539;51.190;6.808;2023-04-03T04:02:28;1.38;;;1.05;;
62616;SDS011;62539;51.190;6.808;2023-04-03T04:04:53;1.10;;;1.00;;
62616;SDS011;62539;51.190;6.808;2023-04-03T04:07:18;1.58;;;1.20;;
62616;SDS011;62539;51.190;6.808;2023-04-03T04:09:44;1.10;;;1.00;;
62616;SDS011;62539;51.190;6.808;2023-04-03T04:12:10;1.13;;;1.00;;
62616;SDS011;62539;51.190;6.808;2023-04-03T04:14:35;1.63;;;0.90;;
62616;SDS011;62539;51.190;6.808;2023-04-03T04:17:00;0.77;;;0.75;;
62616;SDS011;62539;51.190;6.808;2023-04-03T04:19:27;0.80;;;0.80;;
62616;SDS011;62539;51.190;6.808;2023-04-03T04:21:53;1.42;;;0.90;;
62616;SDS011;62539;51.190;6.808;2023-04-03T04:24:19;1.95;;;0.98;;
62616;SDS011;62539;51.190;6.808;2023-04-03T04:26:44;1.48;;;1.00;;
62616;SDS011;62539;51.190;6.808;2023-04-03T04:29:10;1.50;;;0.90;;
62616;SDS011;62539;51.190;6.808;2023-04-03T04:31:36;1.67;;;1.00;;
62616;SDS011;62539;51.190;6.808;2023-04-03T04:34:01;1.35;;;1.15;;
62616;SDS011;62539;51.190;6.808;2023-04-03T04:36:27;2.20;;;0.90;;
62616;SDS011;62539;51.190;6.808;2023-04-03T04:38:52;0.88;;;0.80;;
62616;SDS011;62539;51.190;6.808;2023-04-03T04:41:19;0.90;;;0.70;;
62616;SDS011;62539;51.190;6.808;2023-04-03T04:43:47;1.23;;;0.90;;
62616;SDS011;62539;51.190;6.808;2023-04-03T04:46:14;0.80;;;0.80;;
62616;SDS011;62539;51.190;6.808;2023-04-03T04:48:40;175.63;;;35.22;;
62616;SDS011;62539;51.190;6.808;2023-04-03T04:51:06;148.20;;;25.08;;
62616;SDS011;62539;51.190;6.808;2023-04-03T04:53:31;74.68;;;15.32;;
62616;SDS011;62539;51.190;6.808;2023-04-03T04:55:57;55.85;;;10.95;;
62616;SDS011;62539;51.190;6.808;2023-04-03T04:58:23;49.50;;;10.05;;
62616;SDS011;62539;51.190;6.808;2023-04-03T05:00:49;38.78;;;8.07;;
62616;SDS011;62539;51.190;6.808;2023-04-03T05:03:14;38.08;;;7.25;;
62616;SDS011;62539;51.190;6.808;2023-04-03T05:05:40;35.55;;;6.45;;
62616;SDS011;62539;51.190;6.808;2023-04-03T05:08:06;25.45;;;5.10;;
62616;SDS011;62539;51.190;6.808;2023-04-03T05:10:33;23.77;;;5.80;;
62616;SDS011;62539;51.190;6.808;2023-04-03T05:12:59;19.60;;;4.25;;
62616;SDS011;62539;51.190;6.808;2023-04-03T05:15:24;27.85;;;4.28;;
62616;SDS011;62539;51.190;6.808;2023-04-03T05:17:50;35.28;;;4.55;;
62616;SDS011;62539;51.190;6.808;2023-04-03T05:20:16;15.93;;;3.88;;
62616;SDS011;62539;51.190;6.808;2023-04-03T05:22:42;15.57;;;3.40;;
62616;SDS011;62539;51.190;6.808;2023-04-03T05:25:07;12.95;;;3.17;;
62616;SDS011;62539;51.190;6.808;2023-04-03T05:27:33;15.95;;;3.00;;
62616;SDS011;62539;51.190;6.808;2023-04-03T05:29:59;15.60;;;2.72;;
62616;SDS011;62539;51.190;6.808;2023-04-03T05:32:25;12.18;;;2.58;;
62616;SDS011;62539;51.190;6.808;2023-04-03T05:34:52;14.35;;;2.85;;
62616;SDS011;62539;51.190;6.808;2023-04-03T05:37:18;10.77;;;2.50;;
62616;SDS011;62539;51.190;6.808;2023-04-03T05:39:44;11.88;;;2.30;;
62616;SDS011;62539;51.190;6.808;2023-04-03T05:42:10;10.60;;;2.53;;
62616;SDS011;62539;51.190;6.808;2023-04-03T05:44:36;11.40;;;2.47;;
62616;SDS011;62539;51.190;6.808;2023-04-03T05:47:02;11.00;;;2.92;;
62616;SDS011;62539;51.190;6.808;2023-04-03T05:49:28;11.70;;;2.25;;
62616;SDS011;62539;51.190;6.808;2023-04-03T05:51:53;14.90;;;2.40;;
62616;SDS011;62539;51.190;6.808;2023-04-03T05:54:20;9.43;;;2.55;;
62616;SDS011;62539;51.190;6.808;2023-04-03T05:56:50;16.70;;;2.72;;
62616;SDS011;62539;51.190;6.808;2023-04-03T05:59:16;8.40;;;2.65;;
62616;SDS011;62539;51.190;6.808;2023-04-03T06:01:43;5.28;;;1.95;;
62616;SDS011;62539;51.190;6.808;2023-04-03T06:04:09;5.82;;;2.00;;
62616;SDS011;62539;51.190;6.808;2023-04-03T06:09:16;16.15;;;2.20;;
62616;SDS011;62539;51.190;6.808;2023-04-03T06:11:43;7.13;;;2.13;;
62616;SDS011;62539;51.190;6.808;2023-04-03T06:14:09;6.55;;;2.00;;
62616;SDS011;62539;51.190;6.808;2023-04-03T06:16:36;5.43;;;1.90;;
62616;SDS011;62539;51.190;6.808;2023-04-03T06:19:02;5.43;;;1.65;;
62616;SDS011;62539;51.190;6.808;2023-04-03T06:21:27;9.25;;;2.35;;
62616;SDS011;62539;51.190;6.808;2023-04-03T06:23:53;4.72;;;1.60;;
62616;SDS011;62539;51.190;6.808;2023-04-03T06:26:18;5.28;;;1.80;;
62616;SDS011;62539;51.190;6.808;2023-04-03T06:28:45;7.82;;;2.10;;
62616;SDS011;62539;51.190;6.808;2023-04-03T06:31:11;5.93;;;1.70;;
62616;SDS011;62539;51.190;6.808;2023-04-03T06:33:36;4.68;;;1.80;;
62616;SDS011;62539;51.190;6.808;2023-04-03T06:36:03;12.50;;;1.90;;
62616;SDS011;62539;51.190;6.808;2023-04-03T06:38:30;9.32;;;2.08;;
62616;SDS011;62539;51.190;6.808;2023-04-03T06:40:57;15.43;;;1.98;;
62616;SDS011;62539;51.190;6.808;2023-04-03T06:43:23;6.60;;;1.83;;
62616;SDS011;62539;51.190;6.808;2023-04-03T06:45:49;7.72;;;2.47;;
62616;SDS011;62539;51.190;6.808;2023-04-03T06:48:14;10.98;;;1.70;;
62616;SDS011;62539;51.190;6.808;2023-04-03T06:50:40;7.80;;;1.92;;
62616;SDS011;62539;51.190;6.808;2023-04-03T06:53:05;4.15;;;1.60;;
62616;SDS011;62539;51.190;6.808;2023-04-03T06:55:32;8.02;;;1.77;;
62616;SDS011;62539;51.190;6.808;2023-04-03T06:57:57;2.88;;;1.80;;
62616;SDS011;62539;51.190;6.808;2023-04-03T07:00:23;8.07;;;2.13;;
62616;SDS011;62539;51.190;6.808;2023-04-03T07:02:49;7.32;;;1.40;;
62616;SDS011;62539;51.190;6.808;2023-04-03T07:05:15;3.83;;;1.50;;
62616;SDS011;62539;51.190;6.808;2023-04-03T07:07:41;7.75;;;1.65;;
62616;SDS011;62539;51.190;6.808;2023-04-03T07:10:07;6.93;;;2.13;;
62616;SDS011;62539;51.190;6.808;2023-04-03T07:12:33;4.63;;;1.63;;
62616;SDS011;62539;51.190;6.808;2023-04-03T07:14:59;6.50;;;1.50;;
62616;SDS011;62539;51.190;6.808;2023-04-03T07:17:24;3.35;;;1.75;;
62616;SDS011;62539;51.190;6.808;2023-04-03T07:19:50;4.63;;;1.48;;
62616;SDS011;62539;51.190;6.808;2023-04-03T07:22:16;5.57;;;1.70;;
62616;SDS011;62539;51.190;6.808;2023-04-03T07:24:42;7.50;;;1.67;;
62616;SDS011;62539;51.190;6.808;2023-04-03T07:27:08;4.40;;;1.55;;
62616;SDS011;62539;51.190;6.808;2023-04-03T07:29:34;5.68;;;1.73;;
62616;SDS011;62539;51.190;6.808;2023-04-03T07:32:00;7.60;;;1.50;;
62616;SDS011;62539;51.190;6.808;2023-04-03T07:34:26;6.72;;;1.30;;
62616;SDS011;62539;51.190;6.808;2023-04-03T07:36:53;3.75;;;1.50;;
62616;SDS011;62539;51.190;6.808;2023-04-03T07:39:19;6.88;;;1.60;;
62616;SDS011;62539;51.190;6.808;2023-04-03T07:41:45;4.03;;;1.30;;
62616;SDS011;62539;51.190;6.808;2023-04-03T07:44:10;2.78;;;1.40;;
62616;SDS011;62539;51.190;6.808;2023-04-03T07:46:36;4.75;;;1.40;;
62616;SDS011;62539;51.190;6.808;2023-04-03T07:49:02;7.25;;;1.60;;
62616;SDS011;62539;51.190;6.808;2023-04-03T07:51:27;6.68;;;1.77;;
62616;SDS011;62539;51.190;6.808;2023-04-03T07:53:54;7.53;;;1.63;;
62616;SDS011;62539;51.190;6.808;2023-04-03T07:56:20;14.27;;;1.50;;
62616;SDS011;62539;51.190;6.808;2023-04-03T07:58:46;7.45;;;1.77;;
62616;SDS011;62539;51.190;6.808;2023-04-03T08:01:11;8.60;;;1.50;;
62616;SDS011;62539;51.190;6.808;2023-04-03T08:03:37;7.57;;;1.70;;
62616;SDS011;62539;51.190;6.808;2023-04-03T08:06:05;6.90;;;1.60;;
62616;SDS011;62539;51.190;6.808;2023-04-03T08:08:33;6.78;;;1.50;;
62616;SDS011;62539;51.190;6.808;2023-04-03T08:10:59;12.23;;;1.17;;
62616;SDS011;62539;51.190;6.808;2023-04-03T08:13:27;4.63;;;1.40;;
62616;SDS011;62539;51.190;6.808;2023-04-03T08:15:55;6.93;;;1.50;;
62616;SDS011;62539;51.190;6.808;2023-04-03T08:18:22;4.32;;;1.30;;
62616;SDS011;62539;51.190;6.808;2023-04-03T08:20:49;4.22;;;1.10;;
62616;SDS011;62539;51.190;6.808;2023-04-03T08:23:16;5.25;;;1.20;;
62616;SDS011;62539;51.190;6.808;2023-04-03T08:25:43;7.68;;;1.52;;
62616;SDS011;62539;51.190;6.808;2023-04-03T08:28:09;3.25;;;1.50;;
62616;SDS011;62539;51.190;6.808;2023-04-03T08:30:38;15.85;;;2.05;;
62616;SDS011;62539;51.190;6.808;2023-04-03T08:33:05;4.50;;;1.70;;
62616;SDS011;62539;51.190;6.808;2023-04-03T08:35:31;5.25;;;1.40;;
62616;SDS011;62539;51.190;6.808;2023-04-03T08:37:56;16.27;;;1.50;;
62616;SDS011;62539;51.190;6.808;2023-04-03T08:40:22;8.00;;;1.35;;
62616;SDS011;62539;51.190;6.808;2023-04-03T08:45:38;1.85;;;1.05;;
62616;SDS011;62539;51.190;6.808;2023-04-03T08:48:27;4.57;;;1.20;;
62616;SDS011;62539;51.190;6.808;2023-04-03T08:50:59;6.35;;;1.40;;
62616;SDS011;62539;51.190;6.808;2023-04-03T08:53:32;6.13;;;1.30;;
62616;SDS011;62539;51.190;6.808;2023-04-03T08:56:05;8.93;;;1.75;;
62616;SDS011;62539;51.190;6.808;2023-04-03T09:01:36;4.60;;;1.50;;
62616;SDS011;62539;51.190;6.808;2023-04-03T09:04:09;4.20;;;1.48;;
62616;SDS011;62539;51.190;6.808;2023-04-03T09:06:42;10.07;;;1.63;;
62616;SDS011;62539;51.190;6.808;2023-04-03T09:09:35;8.20;;;1.30;;
62616;SDS011;62539;51.190;6.808;2023-04-03T09:14:57;5.75;;;1.50;;
62616;SDS011;62539;51.190;6.808;2023-04-03T09:17:41;2.67;;;1.10;;
62616;SDS011;62539;51.190;6.808;2023-04-03T09:23:50;5.10;;;1.40;;
62616;SDS011;62539;51.190;6.808;2023-04-03T09:29:01;4.85;;;1.23;;
62616;SDS011;62539;51.190;6.808;2023-04-03T09:31:36;3.45;;;1.20;;
62616;SDS011;62539;51.190;6.808;2023-04-03T09:34:25;6.72;;;1.42;;
62616;SDS011;62539;51.190;6.808;2023-04-03T09:36:57;2.75;;;1.20;;
62616;SDS011;62539;51.190;6.808;2023-04-03T09:39:30;3.85;;;1.50;;
62616;SDS011;62539;51.190;6.808;2023-04-03T09:42:15;4.15;;;1.20;;
62616;SDS011;62539;51.190;6.808;2023-04-03T09:44:52;16.38;;;1.80;;
62616;SDS011;62539;51.190;6.808;2023-04-03T09:47:32;4.82;;;1.13;;
62616;SDS011;62539;51.190;6.808;2023-04-03T09:52:39;5.40;;;0.93;;
62616;SDS011;62539;51.190;6.808;2023-04-03T09:55:15;2.63;;;1.05;;
62616;SDS011;62539;51.190;6.808;2023-04-03T09:57:44;1.50;;;0.85;;
62616;SDS011;62539;51.190;6.808;2023-04-03T10:00:25;1.88;;;1.02;;
62616;SDS011;62539;51.190;6.808;2023-04-03T10:02:57;5.25;;;1.02;;
62616;SDS011;62539;51.190;6.808;2023-04-03T10:05:27;4.32;;;1.23;;
62616;SDS011;62539;51.190;6.808;2023-04-03T10:08:19;3.00;;;1.05;;
62616;SDS011;62539;51.190;6.808;2023-04-03T10:11:10;3.58;;;1.20;;
62616;SDS011;62539;51.190;6.808;2023-04-03T10:13:49;6.13;;;1.10;;
62616;SDS011;62539;51.190;6.808;2023-04-03T10:16:18;3.72;;;0.95;;
62616;SDS011;62539;51.190;6.808;2023-04-03T10:21:54;4.43;;;0.90;;
62616;SDS011;62539;51.190;6.808;2023-04-03T10:25:01;5.35;;;1.15;;
62616;SDS011;62539;51.190;6.808;2023-04-03T10:27:49;1.98;;;1.10;;
62616;SDS011;62539;51.190;6.808;2023-04-03T10:30:36;7.38;;;1.27;;
62616;SDS011;62539;51.190;6.808;2023-04-03T10:39:12;2.67;;;0.90;;
62616;SDS011;62539;51.190;6.808;2023-04-03T10:41:56;2.05;;;0.73;;
62616;SDS011;62539;51.190;6.808;2023-04-03T10:50:26;2.10;;;0.85;;
62616;SDS011;62539;51.190;6.808;2023-04-03T10:58:56;2.15;;;0.80;;
62616;SDS011;62539;51.190;6.808;2023-04-03T11:01:30;1.73;;;0.80;;
62616;SDS011;62539;51.190;6.808;2023-04-03T11:04:03;3.17;;;0.80;;
62616;SDS011;62539;51.190;6.808;2023-04-03T11:07:04;3.08;;;1.15;;
62616;SDS011;62539;51.190;6.808;2023-04-03T11:09:30;2.28;;;0.80;;
62616;SDS011;62539;51.190;6.808;2023-04-03T11:12:16;1.70;;;0.60;;
62616;SDS011;62539;51.190;6.808;2023-04-03T11:14:50;2.92;;;0.85;;
62616;SDS011;62539;51.190;6.808;2023-04-03T11:27:41;3.00;;;0.95;;
62616;SDS011;62539;51.190;6.808;2023-04-03T11:36:03;4.60;;;2.00;;
62616;SDS011;62539;51.190;6.808;2023-04-03T11:38:36;2.67;;;1.00;;
62616;SDS011;62539;51.190;6.808;2023-04-03T11:41:08;2.72;;;0.80;;
62616;SDS011;62539;51.190;6.808;2023-04-03T11:43:42;4.55;;;0.95;;
62616;SDS011;62539;51.190;6.808;2023-04-03T11:46:38;1.88;;;0.90;;
62616;SDS011;62539;51.190;6.808;2023-04-03T12:05:52;2.08;;;0.80;;
62616;SDS011;62539;51.190;6.808;2023-04-03T12:16:25;1.73;;;0.70;;
62616;SDS011;62539;51.190;6.808;2023-04-03T12:29:29;1.88;;;0.75;;
62616;SDS011;62539;51.190;6.808;2023-04-03T12:46:14;6.40;;;0.90;;
62616;SDS011;62539;51.190;6.808;2023-04-03T12:51:19;3.22;;;1.10;;
62616;SDS011;62539;51.190;6.808;2023-04-03T12:54:00;1.55;;;0.65;;
62616;SDS011;62539;51.190;6.808;2023-04-03T12:56:38;4.40;;;0.85;;
62616;SDS011;62539;51.190;6.808;2023-04-03T12:59:23;4.10;;;0.77;;
62616;SDS011;62539;51.190;6.808;2023-04-03T13:01:56;4.85;;;1.00;;
62616;SDS011;62539;51.190;6.808;2023-04-03T13:04:24;2.47;;;0.65;;
62616;SDS011;62539;51.190;6.808;2023-04-03T13:06:52;4.75;;;0.95;;
62616;SDS011;62539;51.190;6.808;2023-04-03T13:09:22;5.82;;;0.90;;
62616;SDS011;62539;51.190;6.808;2023-04-03T13:12:01;3.22;;;1.00;;
62616;SDS011;62539;51.190;6.808;2023-04-03T13:14:36;2.95;;;0.90;;
62616;SDS011;62539;51.190;6.808;2023-04-03T13:17:24;2.17;;;0.95;;
62616;SDS011;62539;51.190;6.808;2023-04-03T13:19:49;3.15;;;0.90;;
62616;SDS011;62539;51.190;6.808;2023-04-03T13:22:21;1.65;;;0.93;;
62616;SDS011;62539;51.190;6.808;2023-04-03T13:24:58;1.17;;;0.68;;
62616;SDS011;62539;51.190;6.808;2023-04-03T13:27:31;1.75;;;0.75;;
62616;SDS011;62539;51.190;6.808;2023-04-03T13:29:57;11.10;;;0.80;;
62616;SDS011;62539;51.190;6.808;2023-04-03T13:32:29;8.57;;;0.95;;
62616;SDS011;62539;51.190;6.808;2023-04-03T13:34:57;4.97;;;0.90;;
62616;SDS011;62539;51.190;6.808;2023-04-03T13:37:28;3.28;;;0.60;;
62616;SDS011;62539;51.190;6.808;2023-04-03T13:40:14;4.72;;;0.65;;
62616;SDS011;62539;51.190;6.808;2023-04-03T13:42:40;3.38;;;0.80;;
62616;SDS011;62539;51.190;6.808;2023-04-03T13:45:18;2.53;;;0.73;;
62616;SDS011;62539;51.190;6.808;2023-04-03T13:47:53;1.95;;;0.80;;
62616;SDS011;62539;51.190;6.808;2023-04-03T13:50:50;1.33;;;0.65;;
62616;SDS011;62539;51.190;6.808;2023-04-03T13:53:21;5.13;;;0.82;;
62616;SDS011;62539;51.190;6.808;2023-04-03T13:55:55;3.95;;;0.70;;
62616;SDS011;62539;51.190;6.808;2023-04-03T13:58:32;1.75;;;0.80;;
62616;SDS011;62539;51.190;6.808;2023-04-03T14:01:07;1.17;;;0.73;;
62616;SDS011;62539;51.190;6.808;2023-04-03T14:03:51;3.40;;;0.90;;
62616;SDS011;62539;51.190;6.808;2023-04-03T14:06:26;6.80;;;1.00;;
62616;SDS011;62539;51.190;6.808;2023-04-03T14:08:52;3.25;;;0.90;;
62616;SDS011;62539;51.190;6.808;2023-04-03T14:11:20;5.68;;;1.40;;
62616;SDS011;62539;51.190;6.808;2023-04-03T14:13:52;9.98;;;1.38;;
62616;SDS011;62539;51.190;6.808;2023-04-03T14:16:20;6.03;;;1.08;;
62616;SDS011;62539;51.190;6.808;2023-04-03T14:18:50;8.98;;;1.40;;
62616;SDS011;62539;51.190;6.808;2023-04-03T14:21:17;9.45;;;1.10;;
62616;SDS011;62539;51.190;6.808;2023-04-03T14:23:46;4.25;;;1.00;;
62616;SDS011;62539;51.190;6.808;2023-04-03T14:26:19;5.13;;;1.23;;
62616;SDS011;62539;51.190;6.808;2023-04-03T14:28:50;5.28;;;0.90;;
62616;SDS011;62539;51.190;6.808;2023-04-03T14:31:18;4.05;;;1.13;;
62616;SDS011;62539;51.190;6.808;2023-04-03T14:33:46;5.78;;;1.00;;
62616;SDS011;62539;51.190;6.808;2023-04-03T14:36:16;7.40;;;1.17;;
62616;SDS011;62539;51.190;6.808;2023-04-03T14:38:46;26.42;;;4.25;;
62616;SDS011;62539;51.190;6.808;2023-04-03T14:41:13;23.20;;;6.32;;
62616;SDS011;62539;51.190;6.808;2023-04-03T14:43:43;11.02;;;3.63;;
62616;SDS011;62539;51.190;6.808;2023-04-03T14:46:32;16.02;;;4.28;;
62616;SDS011;62539;51.190;6.808;2023-04-03T14:49:01;15.30;;;4.95;;
62616;SDS011;62539;51.190;6.808;2023-04-03T14:51:32;15.45;;;5.38;;
62616;SDS011;62539;51.190;6.808;2023-04-03T14:53:58;10.38;;;3.47;;
62616;SDS011;62539;51.190;6.808;2023-04-03T14:56:26;11.48;;;3.83;;
62616;SDS011;62539;51.190;6.808;2023-04-03T14:58:55;8.20;;;2.40;;
62616;SDS011;62539;51.190;6.808;2023-04-03T15:01:25;9.93;;;2.47;;
62616;SDS011;62539;51.190;6.808;2023-04-03T15:03:52;5.65;;;2.13;;
62616;SDS011;62539;51.190;6.808;2023-04-03T15:06:18;5.65;;;1.75;;
62616;SDS011;62539;51.190;6.808;2023-04-03T15:08:45;4.18;;;1.80;;
62616;SDS011;62539;51.190;6.808;2023-04-03T15:11:13;4.68;;;1.83;;
62616;SDS011;62539;51.190;6.808;2023-04-03T15:13:39;4.90;;;1.50;;
62616;SDS011;62539;51.190;6.808;2023-04-03T15:16:10;7.53;;;1.48;;
62616;SDS011;62539;51.190;6.808;2023-04-03T15:18:41;3.10;;;1.30;;
62616;SDS011;62539;51.190;6.808;2023-04-03T15:21:08;6.22;;;1.63;;
62616;SDS011;62539;51.190;6.808;2023-04-03T15:23:33;2.28;;;1.30;;
62616;SDS011;62539;51.190;6.808;2023-04-03T15:25:59;2.80;;;1.13;;
62616;SDS011;62539;51.190;6.808;2023-04-03T15:28:26;3.75;;;1.60;;
62616;SDS011;62539;51.190;6.808;2023-04-03T15:30:56;2.72;;;1.00;;
62616;SDS011;62539;51.190;6.808;2023-04-03T15:33:22;1.45;;;1.02;;
62616;SDS011;62539;51.190;6.808;2023-04-03T15:35:48;2.58;;;1.20;;
62616;SDS011;62539;51.190;6.808;2023-04-03T15:38:14;9.38;;;1.10;;
62616;SDS011;62539;51.190;6.808;2023-04-03T15:40:39;3.22;;;1.10;;
62616;SDS011;62539;51.190;6.808;2023-04-03T15:43:05;2.60;;;1.02;;
62616;SDS011;62539;51.190;6.808;2023-04-03T15:45:32;2.15;;;1.20;;
62616;SDS011;62539;51.190;6.808;2023-04-03T15:48:02;3.45;;;1.10;;
62616;SDS011;62539;51.190;6.808;2023-04-03T15:50:29;3.47;;;1.15;;
62616;SDS011;62539;51.190;6.808;2023-04-03T15:52:56;3.47;;;1.30;;
62616;SDS011;62539;51.190;6.808;2023-04-03T15:55:25;3.17;;;1.48;;
62616;SDS011;62539;51.190;6.808;2023-04-03T15:57:56;2.15;;;0.98;;
62616;SDS011;62539;51.190;6.808;2023-04-03T16:00:22;2.85;;;1.20;;
62616;SDS011;62539;51.190;6.808;2023-04-03T16:02:50;2.08;;;1.10;;
62616;SDS011;62539;51.190;6.808;2023-04-03T16:05:22;3.03;;;1.00;;
62616;SDS011;62539;51.190;6.808;2023-04-03T16:07:47;1.98;;;1.10;;
62616;SDS011;62539;51.190;6.808;2023-04-03T16:10:13;4.45;;;1.10;;
62616;SDS011;62539;51.190;6.808;2023-04-03T16:12:42;3.15;;;0.90;;
62616;SDS011;62539;51.190;6.808;2023-04-03T16:15:07;2.33;;;0.85;;
62616;SDS011;62539;51.190;6.808;2023-04-03T16:17:34;1.63;;;0.95;;
62616;SDS011;62539;51.190;6.808;2023-04-03T16:20:02;2.42;;;1.20;;
62616;SDS011;62539;51.190;6.808;2023-04-03T16:22:31;1.67;;;1.10;;
62616;SDS011;62539;51.190;6.808;2023-04-03T16:24:58;1.67;;;0.85;;
62616;SDS011;62539;51.190;6.808;2023-04-03T16:27:24;4.80;;;1.15;;
62616;SDS011;62539;51.190;6.808;2023-04-03T16:29:56;2.70;;;1.15;;
62616;SDS011;62539;51.190;6.808;2023-04-03T16:32:24;2.15;;;1.23;;
62616;SDS011;62539;51.190;6.808;2023-04-03T16:34:54;4.53;;;1.10;;
62616;SDS011;62539;51.190;6.808;2023-04-03T16:37:20;1.60;;;1.00;;
62616;SDS011;62539;51.190;6.808;2023-04-03T16:39:45;2.47;;;1.10;;
62616;SDS011;62539;51.190;6.808;2023-04-03T16:42:11;4.68;;;1.30;;
62616;SDS011;62539;51.190;6.808;2023-04-03T16:44:36;4.38;;;1.13;;
62616;SDS011;62539;51.190;6.808;2023-04-03T16:47:04;4.15;;;1.02;;
62616;SDS011;62539;51.190;6.808;2023-04-03T16:49:31;3.95;;;1.20;;
62616;SDS011;62539;51.190;6.808;2023-04-03T16:51:59;4.90;;;1.58;;
62616;SDS011;62539;51.190;6.808;2023-04-03T16:54:26;1.35;;;1.00;;
62616;SDS011;62539;51.190;6.808;2023-04-03T16:56:52;7.25;;;1.10;;